sensor_id;sensor_type;location;lat;lon;timestamp;temperature;humidity
23703;DHT22;12030;50.376;8.762;2022-08-03T00:01:34;16.10;99.90
23703;DHT22;12030;50.376;8.762;2022-08-03T00:04:00;16.00;99.90
23703;DHT22;12030;50.376;8.762;2022-08-03T00:06:25;16.00;99.90
23703;DHT22;12030;50.376;8.762;2022-08-03T00:08:51;16.00;99.90
23703;DHT22;12030;50.376;8.762;2022-08-03T00:11:16;16.00;99.90
23703;DHT22;12030;50.376;8.762;2022-08-03T00:13:42;16.00;99.90
23703;DHT22;12030;50.376;8.762;2022-08-03T00:16:08;16.10;99.90
23703;DHT22;12030;50.376;8.762;2022-08-03T00:18:35;16.10;99.90
23703;DHT22;12030;50.376;8.762;2022-08-03T00:21:01;16.00;99.90
23703;DHT22;12030;50.376;8.762;2022-08-03T00:23:27;16.00;99.90
23703;DHT22;12030;50.376;8.762;2022-08-03T00:25:52;15.90;99.90
23703;DHT22;12030;50.376;8.762;2022-08-03T00:28:18;15.90;99.90
23703;DHT22;12030;50.376;8.762;2022-08-03T00:30:43;15.90;99.90
23703;DHT22;12030;50.376;8.762;2022-08-03T00:33:09;15.90;99.90
23703;DHT22;12030;50.376;8.762;2022-08-03T00:35:35;15.90;99.90
23703;DHT22;12030;50.376;8.762;2022-08-03T00:38:00;15.80;99.90
23703;DHT22;12030;50.376;8.762;2022-08-03T00:40:26;15.90;99.90
23703;DHT22;12030;50.376;8.762;2022-08-03T00:42:53;15.80;99.90
23703;DHT22;12030;50.376;8.762;2022-08-03T00:45:27;15.90;99.90
23703;DHT22;12030;50.376;8.762;2022-08-03T00:47:53;15.80;99.90
23703;DHT22;12030;50.376;8.762;2022-08-03T00:50:20;15.80;99.90
23703;DHT22;12030;50.376;8.762;2022-08-03T00:52:47;15.80;99.90
23703;DHT22;12030;50.376;8.762;2022-08-03T00:55:13;15.70;99.90
23703;DHT22;12030;50.376;8.762;2022-08-03T00:57:38;15.70;99.90
23703;DHT22;12030;50.376;8.762;2022-08-03T01:00:06;15.50;99.90
23703;DHT22;12030;50.376;8.762;2022-08-03T01:02:32;15.50;99.90
23703;DHT22;12030;50.376;8.762;2022-08-03T01:04:58;15.50;99.90
23703;DHT22;12030;50.376;8.762;2022-08-03T01:07:32;15.50;99.90
23703;DHT22;12030;50.376;8.762;2022-08-03T01:19:02;15.20;99.90
23703;DHT22;12030;50.376;8.762;2022-08-03T01:21:33;15.30;99.90
23703;DHT22;12030;50.376;8.762;2022-08-03T01:24:03;15.30;99.90
23703;DHT22;12030;50.376;8.762;2022-08-03T01:26:58;15.30;99.90
23703;DHT22;12030;50.376;8.762;2022-08-03T01:29:56;15.30;99.90
23703;DHT22;12030;50.376;8.762;2022-08-03T01:32:33;15.20;99.90
23703;DHT22;12030;50.376;8.762;2022-08-03T01:35:09;15.20;99.90
23703;DHT22;12030;50.376;8.762;2022-08-03T01:37:44;15.30;99.90
23703;DHT22;12030;50.376;8.762;2022-08-03T01:40:12;15.30;99.90
23703;DHT22;12030;50.376;8.762;2022-08-03T01:42:40;15.30;99.90
23703;DHT22;12030;50.376;8.762;2022-08-03T01:45:08;15.30;99.90
23703;DHT22;12030;50.376;8.762;2022-08-03T01:47:36;15.30;99.90
23703;DHT22;12030;50.376;8.762;2022-08-03T01:50:04;15.20;99.90
23703;DHT22;12030;50.376;8.762;2022-08-03T01:52:31;15.20;99.90
23703;DHT22;12030;50.376;8.762;2022-08-03T01:54:59;15.20;99.90
23703;DHT22;12030;50.376;8.762;2022-08-03T01:57:26;15.10;99.90
23703;DHT22;12030;50.376;8.762;2022-08-03T01:59:55;15.10;99.90
23703;DHT22;12030;50.376;8.762;2022-08-03T02:02:21;15.00;99.90
23703;DHT22;12030;50.376;8.762;2022-08-03T02:04:49;15.00;99.90
23703;DHT22;12030;50.376;8.762;2022-08-03T02:07:17;14.90;99.90
23703;DHT22;12030;50.376;8.762;2022-08-03T02:09:45;14.90;99.90
23703;DHT22;12030;50.376;8.762;2022-08-03T02:12:13;14.90;99.90
23703;DHT22;12030;50.376;8.762;2022-08-03T02:14:40;14.90;99.90
23703;DHT22;12030;50.376;8.762;2022-08-03T02:17:06;14.70;99.90
23703;DHT22;12030;50.376;8.762;2022-08-03T02:19:34;14.70;99.90
23703;DHT22;12030;50.376;8.762;2022-08-03T02:22:01;14.70;99.90
23703;DHT22;12030;50.376;8.762;2022-08-03T02:24:28;14.70;99.90
23703;DHT22;12030;50.376;8.762;2022-08-03T02:26:55;14.70;99.90
23703;DHT22;12030;50.376;8.762;2022-08-03T02:29:28;14.70;99.90
23703;DHT22;12030;50.376;8.762;2022-08-03T02:31:57;14.70;99.90
23703;DHT22;12030;50.376;8.762;2022-08-03T02:34:26;14.60;99.90
23703;DHT22;12030;50.376;8.762;2022-08-03T02:36:54;14.60;99.90
23703;DHT22;12030;50.376;8.762;2022-08-03T02:39:25;14.60;99.90
23703;DHT22;12030;50.376;8.762;2022-08-03T02:41:53;14.60;99.90
23703;DHT22;12030;50.376;8.762;2022-08-03T02:44:27;14.50;99.90
23703;DHT22;12030;50.376;8.762;2022-08-03T02:46:55;14.50;99.90
23703;DHT22;12030;50.376;8.762;2022-08-03T02:49:23;14.60;99.90
23703;DHT22;12030;50.376;8.762;2022-08-03T02:51:51;14.50;99.90
23703;DHT22;12030;50.376;8.762;2022-08-03T02:54:19;14.50;99.90
23703;DHT22;12030;50.376;8.762;2022-08-03T02:56:46;14.40;99.90
23703;DHT22;12030;50.376;8.762;2022-08-03T02:59:13;14.40;99.90
23703;DHT22;12030;50.376;8.762;2022-08-03T03:01:40;14.30;99.90
23703;DHT22;12030;50.376;8.762;2022-08-03T03:04:06;14.30;99.90
23703;DHT22;12030;50.376;8.762;2022-08-03T03:06:34;14.20;99.90
23703;DHT22;12030;50.376;8.762;2022-08-03T03:09:00;14.20;99.90
23703;DHT22;12030;50.376;8.762;2022-08-03T03:11:25;14.20;99.90
23703;DHT22;12030;50.376;8.762;2022-08-03T03:13:52;14.20;99.90
23703;DHT22;12030;50.376;8.762;2022-08-03T03:16:20;14.10;99.90
23703;DHT22;12030;50.376;8.762;2022-08-03T03:18:47;14.20;99.90
23703;DHT22;12030;50.376;8.762;2022-08-03T03:21:16;14.20;99.90
23703;DHT22;12030;50.376;8.762;2022-08-03T03:23:45;14.20;99.90
23703;DHT22;12030;50.376;8.762;2022-08-03T03:26:13;14.20;99.90
23703;DHT22;12030;50.376;8.762;2022-08-03T03:28:39;14.10;99.90
23703;DHT22;12030;50.376;8.762;2022-08-03T03:31:06;14.10;99.90
23703;DHT22;12030;50.376;8.762;2022-08-03T03:33:33;14.10;99.90
23703;DHT22;12030;50.376;8.762;2022-08-03T03:35:59;14.10;99.90
23703;DHT22;12030;50.376;8.762;2022-08-03T03:38:24;14.10;99.90
23703;DHT22;12030;50.376;8.762;2022-08-03T03:40:50;14.10;99.90
23703;DHT22;12030;50.376;8.762;2022-08-03T03:43:16;14.10;99.90
23703;DHT22;12030;50.376;8.762;2022-08-03T03:45:43;14.10;99.90
23703;DHT22;12030;50.376;8.762;2022-08-03T03:48:09;14.10;99.90
23703;DHT22;12030;50.376;8.762;2022-08-03T03:50:36;14.00;99.90
23703;DHT22;12030;50.376;8.762;2022-08-03T03:53:03;14.00;99.90
23703;DHT22;12030;50.376;8.762;2022-08-03T03:55:29;14.00;99.90
23703;DHT22;12030;50.376;8.762;2022-08-03T03:57:55;14.00;99.90
23703;DHT22;12030;50.376;8.762;2022-08-03T04:00:21;14.00;99.90
23703;DHT22;12030;50.376;8.762;2022-08-03T04:02:47;14.10;99.90
23703;DHT22;12030;50.376;8.762;2022-08-03T04:05:13;14.10;99.90
23703;DHT22;12030;50.376;8.762;2022-08-03T04:08:09;14.10;99.90
23703;DHT22;12030;50.376;8.762;2022-08-03T04:13:38;14.10;99.90
23703;DHT22;12030;50.376;8.762;2022-08-03T04:16:06;14.10;99.90
23703;DHT22;12030;50.376;8.762;2022-08-03T04:18:33;14.10;99.90
23703;DHT22;12030;50.376;8.762;2022-08-03T04:21:04;13.90;99.90
23703;DHT22;12030;50.376;8.762;2022-08-03T04:23:33;13.90;99.90
23703;DHT22;12030;50.376;8.762;2022-08-03T04:26:01;14.00;99.90
23703;DHT22;12030;50.376;8.762;2022-08-03T04:28:29;14.00;99.90
23703;DHT22;12030;50.376;8.762;2022-08-03T04:30:55;14.00;99.90
23703;DHT22;12030;50.376;8.762;2022-08-03T04:33:22;14.10;99.90
23703;DHT22;12030;50.376;8.762;2022-08-03T04:35:52;14.20;99.90
23703;DHT22;12030;50.376;8.762;2022-08-03T04:38:20;14.20;99.90
23703;DHT22;12030;50.376;8.762;2022-08-03T04:40:47;14.30;99.90
23703;DHT22;12030;50.376;8.762;2022-08-03T04:43:14;14.30;99.90
23703;DHT22;12030;50.376;8.762;2022-08-03T04:45:41;14.40;99.90
23703;DHT22;12030;50.376;8.762;2022-08-03T04:48:07;14.40;99.90
23703;DHT22;12030;50.376;8.762;2022-08-03T04:50:33;14.40;99.90
23703;DHT22;12030;50.376;8.762;2022-08-03T04:52:59;14.50;99.90
23703;DHT22;12030;50.376;8.762;2022-08-03T04:55:28;14.40;99.90
23703;DHT22;12030;50.376;8.762;2022-08-03T04:57:55;14.50;99.90
23703;DHT22;12030;50.376;8.762;2022-08-03T05:00:21;14.50;99.90
23703;DHT22;12030;50.376;8.762;2022-08-03T05:02:47;14.70;99.90
23703;DHT22;12030;50.376;8.762;2022-08-03T05:05:13;14.80;99.90
23703;DHT22;12030;50.376;8.762;2022-08-03T05:07:40;14.90;99.90
23703;DHT22;12030;50.376;8.762;2022-08-03T05:10:07;15.00;99.90
23703;DHT22;12030;50.376;8.762;2022-08-03T05:12:33;15.10;99.90
23703;DHT22;12030;50.376;8.762;2022-08-03T05:14:59;15.10;99.90
23703;DHT22;12030;50.376;8.762;2022-08-03T05:17:25;15.20;99.90
23703;DHT22;12030;50.376;8.762;2022-08-03T05:19:50;15.30;99.90
23703;DHT22;12030;50.376;8.762;2022-08-03T05:22:16;15.50;99.90
23703;DHT22;12030;50.376;8.762;2022-08-03T05:24:41;15.60;99.90
23703;DHT22;12030;50.376;8.762;2022-08-03T05:27:07;15.80;99.90
23703;DHT22;12030;50.376;8.762;2022-08-03T05:29:32;16.00;99.90
23703;DHT22;12030;50.376;8.762;2022-08-03T05:31:58;16.10;99.90
23703;DHT22;12030;50.376;8.762;2022-08-03T05:34:23;16.30;99.90
23703;DHT22;12030;50.376;8.762;2022-08-03T05:36:49;16.40;99.90
23703;DHT22;12030;50.376;8.762;2022-08-03T05:39:15;16.50;99.90
23703;DHT22;12030;50.376;8.762;2022-08-03T05:41:40;16.60;99.90
23703;DHT22;12030;50.376;8.762;2022-08-03T05:44:06;16.80;99.90
23703;DHT22;12030;50.376;8.762;2022-08-03T05:46:31;16.90;99.90
23703;DHT22;12030;50.376;8.762;2022-08-03T05:48:57;17.00;99.90
23703;DHT22;12030;50.376;8.762;2022-08-03T05:51:22;17.20;99.90
23703;DHT22;12030;50.376;8.762;2022-08-03T05:53:48;17.30;99.90
23703;DHT22;12030;50.376;8.762;2022-08-03T05:56:13;17.40;99.90
23703;DHT22;12030;50.376;8.762;2022-08-03T05:58:39;17.60;99.90
23703;DHT22;12030;50.376;8.762;2022-08-03T06:01:04;17.70;99.90
23703;DHT22;12030;50.376;8.762;2022-08-03T06:03:30;17.80;99.90
23703;DHT22;12030;50.376;8.762;2022-08-03T06:05:55;17.90;99.90
23703;DHT22;12030;50.376;8.762;2022-08-03T06:08:22;18.00;99.90
23703;DHT22;12030;50.376;8.762;2022-08-03T06:10:48;18.10;99.90
23703;DHT22;12030;50.376;8.762;2022-08-03T06:13:13;18.30;99.90
23703;DHT22;12030;50.376;8.762;2022-08-03T06:15:39;18.40;99.90
23703;DHT22;12030;50.376;8.762;2022-08-03T06:18:04;18.50;99.90
23703;DHT22;12030;50.376;8.762;2022-08-03T06:20:30;18.70;99.90
23703;DHT22;12030;50.376;8.762;2022-08-03T06:22:56;18.80;99.90
23703;DHT22;12030;50.376;8.762;2022-08-03T06:25:21;18.90;99.90
23703;DHT22;12030;50.376;8.762;2022-08-03T06:27:47;19.00;99.90
23703;DHT22;12030;50.376;8.762;2022-08-03T06:30:12;19.10;99.90
23703;DHT22;12030;50.376;8.762;2022-08-03T06:32:41;19.20;99.90
23703;DHT22;12030;50.376;8.762;2022-08-03T06:35:08;19.30;99.90
23703;DHT22;12030;50.376;8.762;2022-08-03T06:37:44;19.50;99.90
23703;DHT22;12030;50.376;8.762;2022-08-03T06:40:18;19.60;99.90
23703;DHT22;12030;50.376;8.762;2022-08-03T06:42:44;19.70;99.90
23703;DHT22;12030;50.376;8.762;2022-08-03T06:45:11;19.80;99.90
23703;DHT22;12030;50.376;8.762;2022-08-03T06:47:38;20.00;99.90
23703;DHT22;12030;50.376;8.762;2022-08-03T06:50:04;20.10;99.90
23703;DHT22;12030;50.376;8.762;2022-08-03T06:52:30;20.20;99.90
23703;DHT22;12030;50.376;8.762;2022-08-03T06:54:57;20.40;99.90
23703;DHT22;12030;50.376;8.762;2022-08-03T06:57:23;20.50;99.90
23703;DHT22;12030;50.376;8.762;2022-08-03T06:59:48;20.60;99.90
23703;DHT22;12030;50.376;8.762;2022-08-03T07:02:14;20.70;99.90
23703;DHT22;12030;50.376;8.762;2022-08-03T07:04:39;20.90;99.90
23703;DHT22;12030;50.376;8.762;2022-08-03T07:07:05;21.00;99.90
23703;DHT22;12030;50.376;8.762;2022-08-03T07:09:30;21.20;99.90
23703;DHT22;12030;50.376;8.762;2022-08-03T07:11:56;21.30;99.90
23703;DHT22;12030;50.376;8.762;2022-08-03T07:14:23;21.50;99.90
23703;DHT22;12030;50.376;8.762;2022-08-03T07:16:48;21.60;99.90
23703;DHT22;12030;50.376;8.762;2022-08-03T07:19:14;21.70;99.90
23703;DHT22;12030;50.376;8.762;2022-08-03T07:21:40;21.90;99.90
23703;DHT22;12030;50.376;8.762;2022-08-03T07:24:05;22.00;99.90
23703;DHT22;12030;50.376;8.762;2022-08-03T07:26:31;22.20;99.90
23703;DHT22;12030;50.376;8.762;2022-08-03T07:28:56;22.30;99.90
23703;DHT22;12030;50.376;8.762;2022-08-03T07:31:22;22.40;99.90
23703;DHT22;12030;50.376;8.762;2022-08-03T07:33:47;22.60;99.90
23703;DHT22;12030;50.376;8.762;2022-08-03T07:36:13;22.70;99.90
23703;DHT22;12030;50.376;8.762;2022-08-03T07:38:38;22.80;99.90
23703;DHT22;12030;50.376;8.762;2022-08-03T07:41:04;22.90;99.90
23703;DHT22;12030;50.376;8.762;2022-08-03T07:43:29;23.10;99.90
23703;DHT22;12030;50.376;8.762;2022-08-03T07:45:55;23.30;99.90
23703;DHT22;12030;50.376;8.762;2022-08-03T07:48:20;23.40;99.90
23703;DHT22;12030;50.376;8.762;2022-08-03T07:50:46;23.50;99.90
23703;DHT22;12030;50.376;8.762;2022-08-03T07:53:11;23.60;99.20
23703;DHT22;12030;50.376;8.762;2022-08-03T07:55:37;23.70;99.60
23703;DHT22;12030;50.376;8.762;2022-08-03T07:58:05;23.90;99.80
23703;DHT22;12030;50.376;8.762;2022-08-03T08:00:32;23.90;98.70
23703;DHT22;12030;50.376;8.762;2022-08-03T08:02:58;24.20;99.80
23703;DHT22;12030;50.376;8.762;2022-08-03T08:05:24;24.30;99.30
23703;DHT22;12030;50.376;8.762;2022-08-03T08:07:49;24.50;98.50
23703;DHT22;12030;50.376;8.762;2022-08-03T08:10:15;24.50;97.60
23703;DHT22;12030;50.376;8.762;2022-08-03T08:12:40;24.60;97.60
23703;DHT22;12030;50.376;8.762;2022-08-03T08:15:07;24.80;98.70
23703;DHT22;12030;50.376;8.762;2022-08-03T08:17:53;24.90;97.60
23703;DHT22;12030;50.376;8.762;2022-08-03T08:20:31;25.00;97.10
23703;DHT22;12030;50.376;8.762;2022-08-03T08:22:59;25.20;96.00
23703;DHT22;12030;50.376;8.762;2022-08-03T08:25:25;25.20;96.40
23703;DHT22;12030;50.376;8.762;2022-08-03T08:27:50;25.30;97.50
23703;DHT22;12030;50.376;8.762;2022-08-03T08:30:19;25.40;96.60
23703;DHT22;12030;50.376;8.762;2022-08-03T08:32:45;25.50;97.30
23703;DHT22;12030;50.376;8.762;2022-08-03T08:35:12;25.60;96.40
23703;DHT22;12030;50.376;8.762;2022-08-03T08:37:38;25.80;95.80
23703;DHT22;12030;50.376;8.762;2022-08-03T08:40:05;25.90;94.70
23703;DHT22;12030;50.376;8.762;2022-08-03T08:42:31;26.00;95.10
23703;DHT22;12030;50.376;8.762;2022-08-03T08:44:59;26.20;94.60
23703;DHT22;12030;50.376;8.762;2022-08-03T08:47:25;26.30;94.60
23703;DHT22;12030;50.376;8.762;2022-08-03T08:49:53;26.50;95.30
23703;DHT22;12030;50.376;8.762;2022-08-03T08:52:25;26.60;93.60
23703;DHT22;12030;50.376;8.762;2022-08-03T08:55:00;26.70;94.20
23703;DHT22;12030;50.376;8.762;2022-08-03T08:57:30;26.80;93.70
23703;DHT22;12030;50.376;8.762;2022-08-03T08:59:58;26.80;94.90
23703;DHT22;12030;50.376;8.762;2022-08-03T09:02:24;27.00;93.60
23703;DHT22;12030;50.376;8.762;2022-08-03T09:04:51;27.20;93.50
23703;DHT22;12030;50.376;8.762;2022-08-03T09:07:17;27.30;92.90
23703;DHT22;12030;50.376;8.762;2022-08-03T09:09:43;27.40;93.20
23703;DHT22;12030;50.376;8.762;2022-08-03T09:12:08;27.50;91.90
23703;DHT22;12030;50.376;8.762;2022-08-03T09:14:34;27.60;91.70
23703;DHT22;12030;50.376;8.762;2022-08-03T09:17:02;27.70;92.60
23703;DHT22;12030;50.376;8.762;2022-08-03T09:19:30;27.80;93.20
23703;DHT22;12030;50.376;8.762;2022-08-03T09:22:09;27.90;91.40
23703;DHT22;12030;50.376;8.762;2022-08-03T09:24:35;28.00;90.60
23703;DHT22;12030;50.376;8.762;2022-08-03T09:27:05;28.20;89.00
23703;DHT22;12030;50.376;8.762;2022-08-03T09:29:32;28.20;90.50
23703;DHT22;12030;50.376;8.762;2022-08-03T09:32:03;28.40;89.80
23703;DHT22;12030;50.376;8.762;2022-08-03T09:34:29;28.50;89.20
23703;DHT22;12030;50.376;8.762;2022-08-03T09:36:55;28.70;87.60
23703;DHT22;12030;50.376;8.762;2022-08-03T09:39:25;28.80;86.00
23703;DHT22;12030;50.376;8.762;2022-08-03T09:42:11;28.80;87.20
23703;DHT22;12030;50.376;8.762;2022-08-03T09:44:40;28.90;87.60
23703;DHT22;12030;50.376;8.762;2022-08-03T09:47:11;29.00;87.20
23703;DHT22;12030;50.376;8.762;2022-08-03T09:49:38;29.10;84.80
23703;DHT22;12030;50.376;8.762;2022-08-03T09:52:16;29.10;84.20
23703;DHT22;12030;50.376;8.762;2022-08-03T09:54:52;29.20;86.00
23703;DHT22;12030;50.376;8.762;2022-08-03T09:57:23;29.40;84.80
23703;DHT22;12030;50.376;8.762;2022-08-03T09:59:50;29.50;84.40
23703;DHT22;12030;50.376;8.762;2022-08-03T10:02:23;29.60;84.20
23703;DHT22;12030;50.376;8.762;2022-08-03T10:04:50;29.80;84.40
23703;DHT22;12030;50.376;8.762;2022-08-03T10:07:21;30.00;83.80
23703;DHT22;12030;50.376;8.762;2022-08-03T10:10:00;30.10;82.60
23703;DHT22;12030;50.376;8.762;2022-08-03T10:12:27;30.20;82.10
23703;DHT22;12030;50.376;8.762;2022-08-03T10:14:53;30.20;80.90
23703;DHT22;12030;50.376;8.762;2022-08-03T10:17:19;30.30;81.50
23703;DHT22;12030;50.376;8.762;2022-08-03T10:19:46;30.30;78.10
23703;DHT22;12030;50.376;8.762;2022-08-03T10:22:25;30.30;81.80
23703;DHT22;12030;50.376;8.762;2022-08-03T10:25:10;30.20;82.60
23703;DHT22;12030;50.376;8.762;2022-08-03T10:27:41;30.20;84.80
23703;DHT22;12030;50.376;8.762;2022-08-03T10:30:09;30.30;80.50
23703;DHT22;12030;50.376;8.762;2022-08-03T10:32:53;30.40;80.50
23703;DHT22;12030;50.376;8.762;2022-08-03T10:35:20;30.40;81.00
23703;DHT22;12030;50.376;8.762;2022-08-03T10:40:27;30.70;80.80
23703;DHT22;12030;50.376;8.762;2022-08-03T10:42:55;30.70;79.30
23703;DHT22;12030;50.376;8.762;2022-08-03T10:45:25;30.80;79.80
23703;DHT22;12030;50.376;8.762;2022-08-03T10:47:53;30.90;76.80
23703;DHT22;12030;50.376;8.762;2022-08-03T10:50:22;31.00;75.90
23703;DHT22;12030;50.376;8.762;2022-08-03T10:53:02;31.00;79.00
23703;DHT22;12030;50.376;8.762;2022-08-03T10:55:36;31.00;76.80
23703;DHT22;12030;50.376;8.762;2022-08-03T11:01:09;31.10;77.40
23703;DHT22;12030;50.376;8.762;2022-08-03T11:04:14;31.20;75.90
23703;DHT22;12030;50.376;8.762;2022-08-03T11:06:40;31.40;79.30
23703;DHT22;12030;50.376;8.762;2022-08-03T11:11:38;31.50;78.90
23703;DHT22;12030;50.376;8.762;2022-08-03T11:14:07;31.40;76.70
23703;DHT22;12030;50.376;8.762;2022-08-03T11:16:36;31.40;75.50
23703;DHT22;12030;50.376;8.762;2022-08-03T11:19:10;31.50;77.10
23703;DHT22;12030;50.376;8.762;2022-08-03T11:27:24;32.00;73.00
23703;DHT22;12030;50.376;8.762;2022-08-03T11:30:08;32.10;74.20
23703;DHT22;12030;50.376;8.762;2022-08-03T11:35:30;32.40;73.90
23703;DHT22;12030;50.376;8.762;2022-08-03T11:40:45;32.50;74.80
23703;DHT22;12030;50.376;8.762;2022-08-03T11:46:12;32.70;73.70
23703;DHT22;12030;50.376;8.762;2022-08-03T11:48:46;32.80;73.00
23703;DHT22;12030;50.376;8.762;2022-08-03T11:51:27;32.90;72.40
23703;DHT22;12030;50.376;8.762;2022-08-03T11:53:59;33.00;72.10
23703;DHT22;12030;50.376;8.762;2022-08-03T11:56:26;33.10;71.00
23703;DHT22;12030;50.376;8.762;2022-08-03T11:58:56;33.20;69.70
23703;DHT22;12030;50.376;8.762;2022-08-03T12:01:23;33.30;67.80
23703;DHT22;12030;50.376;8.762;2022-08-03T12:03:49;33.30;69.80
23703;DHT22;12030;50.376;8.762;2022-08-03T12:06:16;33.40;69.20
23703;DHT22;12030;50.376;8.762;2022-08-03T12:08:43;33.60;70.00
23703;DHT22;12030;50.376;8.762;2022-08-03T12:11:11;33.60;69.70
23703;DHT22;12030;50.376;8.762;2022-08-03T12:13:43;33.70;69.10
23703;DHT22;12030;50.376;8.762;2022-08-03T12:16:10;33.80;66.00
23703;DHT22;12030;50.376;8.762;2022-08-03T12:18:41;33.60;68.10
23703;DHT22;12030;50.376;8.762;2022-08-03T12:21:09;33.70;67.40
23703;DHT22;12030;50.376;8.762;2022-08-03T12:23:36;33.90;65.10
23703;DHT22;12030;50.376;8.762;2022-08-03T12:26:04;33.70;66.60
23703;DHT22;12030;50.376;8.762;2022-08-03T12:28:29;33.90;66.10
23703;DHT22;12030;50.376;8.762;2022-08-03T12:31:00;34.00;67.20
23703;DHT22;12030;50.376;8.762;2022-08-03T12:33:27;34.00;64.60
23703;DHT22;12030;50.376;8.762;2022-08-03T12:38:31;34.00;64.40
23703;DHT22;12030;50.376;8.762;2022-08-03T12:41:00;34.20;67.80
23703;DHT22;12030;50.376;8.762;2022-08-03T12:43:25;34.30;65.80
23703;DHT22;12030;50.376;8.762;2022-08-03T12:46:05;34.50;65.10
23703;DHT22;12030;50.376;8.762;2022-08-03T12:48:30;34.60;65.30
23703;DHT22;12030;50.376;8.762;2022-08-03T12:51:08;34.70;61.00
23703;DHT22;12030;50.376;8.762;2022-08-03T12:53:34;34.80;63.50
23703;DHT22;12030;50.376;8.762;2022-08-03T12:56:04;34.80;62.20
23703;DHT22;12030;50.376;8.762;2022-08-03T12:58:34;34.90;60.40
23703;DHT22;12030;50.376;8.762;2022-08-03T13:01:01;34.80;59.50
23703;DHT22;12030;50.376;8.762;2022-08-03T13:03:27;34.90;62.40
23703;DHT22;12030;50.376;8.762;2022-08-03T13:05:53;35.10;63.60
23703;DHT22;12030;50.376;8.762;2022-08-03T13:08:20;35.30;63.60
23703;DHT22;12030;50.376;8.762;2022-08-03T13:10:46;35.50;61.80
23703;DHT22;12030;50.376;8.762;2022-08-03T13:13:12;35.50;59.40
23703;DHT22;12030;50.376;8.762;2022-08-03T13:15:38;35.60;60.80
23703;DHT22;12030;50.376;8.762;2022-08-03T13:18:04;35.80;61.30
23703;DHT22;12030;50.376;8.762;2022-08-03T13:20:30;35.90;62.80
23703;DHT22;12030;50.376;8.762;2022-08-03T13:22:55;36.00;61.70
23703;DHT22;12030;50.376;8.762;2022-08-03T13:25:21;36.10;58.80
23703;DHT22;12030;50.376;8.762;2022-08-03T13:27:47;36.10;61.60
23703;DHT22;12030;50.376;8.762;2022-08-03T13:30:13;36.10;60.90
23703;DHT22;12030;50.376;8.762;2022-08-03T13:32:39;36.10;60.70
23703;DHT22;12030;50.376;8.762;2022-08-03T13:35:05;36.10;59.00
23703;DHT22;12030;50.376;8.762;2022-08-03T13:37:32;36.30;59.60
23703;DHT22;12030;50.376;8.762;2022-08-03T13:39:58;36.50;59.50
23703;DHT22;12030;50.376;8.762;2022-08-03T13:42:24;36.50;57.20
23703;DHT22;12030;50.376;8.762;2022-08-03T13:44:50;36.40;57.10
23703;DHT22;12030;50.376;8.762;2022-08-03T13:47:15;36.60;59.00
23703;DHT22;12030;50.376;8.762;2022-08-03T13:49:41;36.50;58.60
23703;DHT22;12030;50.376;8.762;2022-08-03T13:52:07;36.70;59.50
23703;DHT22;12030;50.376;8.762;2022-08-03T13:54:32;36.90;59.60
23703;DHT22;12030;50.376;8.762;2022-08-03T13:56:58;37.10;58.30
23703;DHT22;12030;50.376;8.762;2022-08-03T13:59:25;37.10;58.60
23703;DHT22;12030;50.376;8.762;2022-08-03T14:01:52;37.20;58.10
23703;DHT22;12030;50.376;8.762;2022-08-03T14:04:18;37.20;57.10
23703;DHT22;12030;50.376;8.762;2022-08-03T14:06:43;37.30;57.00
23703;DHT22;12030;50.376;8.762;2022-08-03T14:09:13;37.30;57.70
23703;DHT22;12030;50.376;8.762;2022-08-03T14:11:39;37.20;55.30
23703;DHT22;12030;50.376;8.762;2022-08-03T14:14:05;37.30;58.70
23703;DHT22;12030;50.376;8.762;2022-08-03T14:16:31;37.50;57.90
23703;DHT22;12030;50.376;8.762;2022-08-03T14:18:56;37.60;57.30
23703;DHT22;12030;50.376;8.762;2022-08-03T14:21:22;37.60;56.80
23703;DHT22;12030;50.376;8.762;2022-08-03T14:23:47;37.70;57.40
23703;DHT22;12030;50.376;8.762;2022-08-03T14:26:13;37.70;58.10
23703;DHT22;12030;50.376;8.762;2022-08-03T14:28:39;37.90;58.30
23703;DHT22;12030;50.376;8.762;2022-08-03T14:31:05;38.00;58.50
23703;DHT22;12030;50.376;8.762;2022-08-03T14:33:31;38.00;58.20
23703;DHT22;12030;50.376;8.762;2022-08-03T14:35:56;38.20;56.50
23703;DHT22;12030;50.376;8.762;2022-08-03T14:38:22;38.10;57.00
23703;DHT22;12030;50.376;8.762;2022-08-03T14:40:48;38.30;56.40
23703;DHT22;12030;50.376;8.762;2022-08-03T14:43:14;38.20;54.70
23703;DHT22;12030;50.376;8.762;2022-08-03T14:45:42;38.00;58.10
23703;DHT22;12030;50.376;8.762;2022-08-03T14:48:08;38.10;56.50
23703;DHT22;12030;50.376;8.762;2022-08-03T14:50:33;38.00;56.40
23703;DHT22;12030;50.376;8.762;2022-08-03T14:52:59;38.00;57.40
23703;DHT22;12030;50.376;8.762;2022-08-03T14:55:24;38.10;56.00
23703;DHT22;12030;50.376;8.762;2022-08-03T14:57:50;38.10;55.40
23703;DHT22;12030;50.376;8.762;2022-08-03T15:00:15;38.20;55.80
23703;DHT22;12030;50.376;8.762;2022-08-03T15:02:41;38.20;55.50
23703;DHT22;12030;50.376;8.762;2022-08-03T15:05:07;38.30;55.60
23703;DHT22;12030;50.376;8.762;2022-08-03T15:07:33;37.90;53.30
23703;DHT22;12030;50.376;8.762;2022-08-03T15:09:58;38.00;56.00
23703;DHT22;12030;50.376;8.762;2022-08-03T15:12:24;38.20;54.50
23703;DHT22;12030;50.376;8.762;2022-08-03T15:14:50;38.40;55.50
23703;DHT22;12030;50.376;8.762;2022-08-03T15:17:15;38.50;55.20
23703;DHT22;12030;50.376;8.762;2022-08-03T15:19:41;38.20;54.70
23703;DHT22;12030;50.376;8.762;2022-08-03T15:22:07;38.20;54.90
23703;DHT22;12030;50.376;8.762;2022-08-03T15:24:32;38.30;55.30
23703;DHT22;12030;50.376;8.762;2022-08-03T15:26:58;38.50;54.80
23703;DHT22;12030;50.376;8.762;2022-08-03T15:29:23;38.30;54.70
23703;DHT22;12030;50.376;8.762;2022-08-03T15:31:49;38.40;55.70
23703;DHT22;12030;50.376;8.762;2022-08-03T15:34:14;38.40;54.30
23703;DHT22;12030;50.376;8.762;2022-08-03T15:36:40;38.50;57.10
23703;DHT22;12030;50.376;8.762;2022-08-03T15:39:06;38.50;54.80
23703;DHT22;12030;50.376;8.762;2022-08-03T15:41:31;38.40;54.20
23703;DHT22;12030;50.376;8.762;2022-08-03T15:43:57;38.50;53.80
23703;DHT22;12030;50.376;8.762;2022-08-03T15:46:22;38.60;54.70
23703;DHT22;12030;50.376;8.762;2022-08-03T15:48:48;38.60;54.80
23703;DHT22;12030;50.376;8.762;2022-08-03T15:51:14;38.60;54.90
23703;DHT22;12030;50.376;8.762;2022-08-03T15:53:39;38.60;53.30
23703;DHT22;12030;50.376;8.762;2022-08-03T15:56:06;38.70;53.50
23703;DHT22;12030;50.376;8.762;2022-08-03T15:58:33;38.70;55.70
23703;DHT22;12030;50.376;8.762;2022-08-03T16:00:59;38.60;53.70
23703;DHT22;12030;50.376;8.762;2022-08-03T16:03:26;38.30;53.80
23703;DHT22;12030;50.376;8.762;2022-08-03T16:05:53;38.40;52.30
23703;DHT22;12030;50.376;8.762;2022-08-03T16:08:19;38.50;53.80
23703;DHT22;12030;50.376;8.762;2022-08-03T16:10:46;38.50;54.60